Time;durP1;ratioP1;P1;durP2;ratioP2;P2;SDS_P1;SDS_P2;PMS_P1;PMS_P2;Temp;Humidity;BMP_temperature;BMP_pressure;BME280_temperature;BME280_humidity;BME280_pressure;Samples;Min_cycle;Max_cycle;Signal;HPM_P1;HPM_P2
2022/12/15 00:40:37;;;;;;;;;47.00;35.33;;;;;1.53;59.33;99986.81;5098080;27;45397;-58
2022/12/15 00:43:03;;;;;;;;;25.75;19.25;;;;;1.49;59.64;99990.44;5074276;28;45405;-61
2022/12/15 00:48:12;;;;;;;;;65.00;48.67;;;;;1.44;59.92;99994.97;5087367;27;45406;-60
2022/12/15 00:50:52;;;;;;;;;60.67;52.00;;;;;1.43;60.67;99996.72;5098274;27;45422;-59
2022/12/15 01:20:43;;;;;;;;;60.67;48.00;;;;;1.00;62.16;99975.22;5076969;28;45400;-60
2022/12/15 01:23:08;;;;;;;;;67.00;51.67;;;;;1.02;62.27;99987.38;5058900;27;45193;-59
2022/12/15 01:25:37;;;;;;;;;64.67;50.67;;;;;1.01;62.31;100006.59;5096177;27;45778;-59
2022/12/15 01:28:02;;;;;;;;;73.00;54.33;;;;;0.97;62.02;100004.13;5097144;27;45219;-61
2022/12/15 01:30:28;;;;;;;;;67.67;52.00;;;;;0.96;62.56;100012.88;5091409;27;45501;-59
2022/12/15 01:32:54;;;;;;;;;73.67;57.33;;;;;0.96;61.55;100013.72;5096524;27;45846;-60
2022/12/15 01:35:20;;;;;;;;;77.67;57.67;;;;;0.96;62.09;100008.50;5077805;27;46327;-59
2022/12/15 01:37:45;;;;;;;;;68.67;52.67;;;;;0.93;61.65;99994.63;5078407;27;45486;-59
2022/12/15 01:42:57;;;;;;;;;55.00;48.00;;;;;0.87;61.91;100016.56;5077059;28;45401;-60
2022/12/15 01:45:23;;;;;;;;;65.00;51.00;;;;;0.85;62.06;100011.38;5076754;27;45228;-59
2022/12/15 01:48:04;;;;;;;;;70.67;54.00;;;;;0.67;62.13;99990.06;5084272;27;45220;-60
2022/12/15 01:50:34;;;;;;;;;62.00;49.00;;;;;0.82;62.18;100023.69;5096701;27;45429;-60
2022/12/15 01:53:01;;;;;;;;;67.67;52.00;;;;;0.80;62.13;100017.66;5089582;27;45177;-59
2022/12/15 01:55:29;;;;;;;;;73.00;54.67;;;;;0.76;62.39;100018.59;5057838;28;46232;-60
2022/12/15 01:58:00;;;;;;;;;68.33;53.33;;;;;0.71;62.52;100018.72;5082677;27;45366;-60
2022/12/15 02:00:25;;;;;;;;;55.00;46.33;;;;;0.70;62.57;100026.63;5093854;27;45515;-60
2022/12/15 02:02:52;;;;;;;;;63.00;51.33;;;;;0.69;62.73;100024.91;5088139;27;45978;-60
2022/12/15 02:05:19;;;;;;;;;64.00;50.33;;;;;0.71;62.31;100026.56;5077572;27;48539;-59
2022/12/15 02:07:44;;;;;;;;;52.33;43.33;;;;;0.64;63.24;100016.28;5094675;27;45597;-60
2022/12/15 02:10:10;;;;;;;;;68.33;54.00;;;;;0.60;62.71;100023.38;5094372;27;45491;-60
2022/12/15 02:13:03;;;;;;;;;56.00;45.00;;;;;0.53;63.41;100024.44;5094582;27;45547;-60
2022/12/15 02:15:49;;;;;;;;;59.67;47.67;;;;;0.54;63.12;100013.91;5091801;27;45413;-61
2022/12/15 02:18:17;;;;;;;;;54.00;45.67;;;;;0.53;63.36;100017.44;5074550;27;45370;-60
2022/12/15 02:20:48;;;;;;;;;65.67;51.00;;;;;0.52;63.65;100013.09;5094647;27;45547;-60
2022/12/15 02:24:05;;;;;;;;;63.00;49.00;;;;;0.48;63.55;100011.44;5096345;27;45500;-60
2022/12/15 02:27:04;;;;;;;;;52.33;45.33;;;;;0.48;63.30;100011.44;5036056;27;46015;-60
2022/12/15 02:30:25;;;;;;;;;59.00;48.00;;;;;0.47;63.58;100024.56;5077923;27;45374;-59
2022/12/15 02:33:12;;;;;;;;;54.00;49.00;;;;;0.46;63.20;100028.94;5038927;28;45465;-59
2022/12/15 02:35:59;;;;;;;;;65.33;48.00;;;;;0.45;63.51;100021.97;5084868;27;45607;-59
2022/12/15 02:38:37;;;;;;;;;58.00;49.00;;;;;0.39;63.79;100016.91;5097402;27;45243;-59
2022/12/15 02:41:05;;;;;;;;;67.00;51.33;;;;;0.31;64.03;100003.16;5093558;27;45429;-60
2022/12/15 02:43:34;;;;;;;;;64.00;49.00;;;;;0.34;63.90;100021.38;5096299;27;45366;-62
2022/12/15 02:46:16;;;;;;;;;62.00;44.00;;;;;0.28;64.16;100027.63;5096381;27;45539;-59
2022/12/15 02:49:12;;;;;;;;;63.67;48.67;;;;;0.21;64.09;100023.41;5086752;27;45309;-60
2022/12/15 02:51:52;;;;;;;;;63.67;49.00;;;;;0.32;64.16;100032.78;5089628;27;45387;-60
2022/12/15 02:54:44;;;;;;;;;62.33;47.67;;;;;0.34;64.34;100033.59;5079329;28;45580;-59
2022/12/15 02:57:24;;;;;;;;;60.67;47.67;;;;;0.35;63.72;100025.69;5078562;28;45342;-60
2022/12/15 03:00:01;;;;;;;;;67.67;52.00;;;;;0.33;64.13;100021.41;5091188;27;45395;-60
2022/12/15 03:02:31;;;;;;;;;58.67;46.00;;;;;0.36;63.68;100016.09;5081299;27;45425;-60
2022/12/15 03:04:57;;;;;;;;;67.67;49.00;;;;;0.37;64.11;100028.28;5083803;27;45417;-60
2022/12/15 03:07:26;;;;;;;;;58.00;48.00;;;;;0.25;63.93;100021.56;5080253;27;45365;-60
2022/12/15 03:09:54;;;;;;;;;64.67;50.33;;;;;0.11;63.88;99995.75;5097164;27;45733;-59
2022/12/15 03:12:20;;;;;;;;;67.00;47.33;;;;;0.32;64.29;100031.00;5099207;27;45420;-60
2022/12/15 03:14:46;;;;;;;;;61.67;49.00;;;;;0.29;64.31;100025.88;5099122;27;45210;-60
2022/12/15 03:17:11;;;;;;;;;55.67;48.67;;;;;0.29;64.24;100018.00;5098433;27;45579;-60
2022/12/15 03:19:37;;;;;;;;;67.00;50.33;;;;;0.29;64.75;100025.88;5080285;27;46917;-60
2022/12/15 03:22:03;;;;;;;;;58.33;51.00;;;;;0.27;64.28;100032.88;5078821;27;45287;-60
2022/12/15 03:24:28;;;;;;;;;66.33;52.00;;;;;0.26;64.04;100041.59;5098991;27;45410;-60
2022/12/15 03:26:54;;;;;;;;;63.33;49.67;;;;;0.26;63.88;100033.75;5097911;27;45388;-59
2022/12/15 03:29:19;;;;;;;;;65.67;49.00;;;;;0.24;64.48;100032.94;5080574;27;46868;-59
2022/12/15 03:31:45;;;;;;;;;69.67;52.00;;;;;0.16;64.23;100034.88;5078927;27;45407;-58
2022/12/15 03:34:11;;;;;;;;;68.33;55.00;;;;;0.17;64.60;100028.75;5097163;27;45427;-59
2022/12/15 03:36:36;;;;;;;;;57.33;49.00;;;;;0.17;64.37;100031.38;5099086;27;45499;-61
2022/12/15 03:39:02;;;;;;;;;65.33;54.33;;;;;0.09;64.29;100021.06;5098864;27;45377;-60
2022/12/15 03:41:27;;;;;;;;;76.33;56.33;;;;;0.07;64.62;100022.88;5097427;27;45685;-60
2022/12/15 03:43:53;;;;;;;;;60.00;48.33;;;;;-0.02;64.65;100020.44;5098833;27;45275;-60
2022/12/15 03:46:18;;;;;;;;;70.67;52.00;;;;;-0.16;64.84;100001.59;5099069;27;45311;-61
2022/12/15 03:48:44;;;;;;;;;57.00;43.67;;;;;-0.09;65.11;100016.25;5084360;27;45484;-59
2022/12/15 03:51:09;;;;;;;;;72.33;54.00;;;;;-0.09;65.05;100013.66;5098672;27;45560;-60
2022/12/15 03:53:34;;;;;;;;;61.67;48.00;;;;;-0.13;65.30;100011.97;5093673;27;45409;-60
2022/12/15 03:56:00;;;;;;;;;71.33;54.00;;;;;-0.11;65.44;100020.66;5078865;28;45534;-60
2022/12/15 03:58:25;;;;;;;;;62.33;46.00;;;;;-0.21;65.04;100008.69;5091055;27;45239;-60
2022/12/15 04:00:51;;;;;;;;;71.00;52.00;;;;;-0.21;65.23;100017.38;5084548;27;45539;-61
2022/12/15 04:03:16;;;;;;;;;65.33;50.67;;;;;-0.23;65.46;100021.78;5098673;27;45675;-61
2022/12/15 04:05:42;;;;;;;;;69.33;48.00;;;;;-0.25;65.48;100028.81;5098618;27;45633;-61
2022/12/15 04:08:07;;;;;;;;;63.00;51.67;;;;;-0.40;65.50;100013.41;5098557;27;46580;-65
2022/12/15 04:10:34;;;;;;;;;68.00;50.33;;;;;-0.34;65.84;100031.59;5098608;27;45342;-60
2022/12/15 04:13:06;;;;;;;;;49.33;35.67;;;;;-0.30;65.72;100043.69;5098553;27;45373;-59
2022/12/15 04:15:33;;;;;;;;;55.00;44.33;;;;;-0.31;65.50;100037.63;5096323;27;45577;-61
2022/12/15 04:18:01;;;;;;;;;59.67;46.00;;;;;-0.28;65.47;100017.53;5098456;27;46376;-61
2022/12/15 04:20:27;;;;;;;;;63.67;52.00;;;;;-0.21;65.01;100009.53;5097880;27;45380;-61
2022/12/15 04:22:52;;;;;;;;;54.67;44.00;;;;;-0.18;64.97;100012.09;5098470;27;45413;-61
2022/12/15 05:34:11;;;;;;;;;65.67;47.00;;;;;0.04;64.33;100011.63;5097588;27;45805;-60
2022/12/15 05:36:36;;;;;;;;;69.00;51.67;;;;;0.06;64.39;100005.47;5087923;27;45449;-59
2022/12/15 05:39:02;;;;;;;;;58.67;51.33;;;;;0.07;64.40;100014.16;5083087;27;45915;-62
2022/12/15 05:41:28;;;;;;;;;71.67;57.33;;;;;0.15;64.02;100017.47;5096627;27;45449;-60
2022/12/15 05:43:53;;;;;;;;;44.33;40.67;;;;;0.17;64.09;100018.28;5095591;27;46239;-60
2022/12/15 05:46:19;;;;;;;;;75.33;49.67;;;;;0.16;63.75;100020.06;5095693;27;45467;-60
2022/12/15 05:48:45;;;;;;;;;70.00;56.33;;;;;0.18;63.97;100035.69;5090690;27;45351;-62
2022/12/15 05:51:12;;;;;;;;;68.33;55.33;;;;;0.12;64.32;100025.38;5089674;27;45344;-61
2022/12/15 05:53:39;;;;;;;;;72.00;54.00;;;;;0.13;63.72;100035.81;5097326;27;46138;-61
2022/12/15 05:56:11;;;;;;;;;61.67;49.67;;;;;0.11;64.14;100036.72;5096585;27;45428;-60
2022/12/15 05:58:37;;;;;;;;;66.00;51.00;;;;;0.08;63.97;100026.34;5097136;27;45325;-60
2022/12/15 06:01:11;;;;;;;;;76.00;58.00;;;;;0.09;64.12;100022.81;5086522;27;45539;-64
2022/12/15 06:03:38;;;;;;;;;69.67;54.00;;;;;0.06;64.58;100028.13;5076832;28;45361;-62
2022/12/15 06:06:05;;;;;;;;;66.33;49.67;;;;;-0.08;64.54;100031.91;5078317;27;45470;-61
2022/12/15 06:08:33;;;;;;;;;62.00;51.67;;;;;-0.11;64.73;100031.97;5095302;27;45477;-61
2022/12/15 06:10:59;;;;;;;;;61.00;49.00;;;;;-0.07;65.07;100044.09;5082011;27;45556;-60
2022/12/15 06:13:25;;;;;;;;;57.67;48.00;;;;;-0.16;64.71;100033.81;5085957;27;46197;-60
2022/12/15 06:16:02;;;;;;;;;67.00;52.00;;;;;-0.04;64.40;100041.41;5076281;28;45245;-60
2022/12/15 06:18:30;;;;;;;;;62.33;47.33;;;;;-0.01;64.35;100032.63;5080294;27;45264;-60
2022/12/15 06:20:57;;;;;;;;;62.33;48.67;;;;;-0.02;64.74;100031.75;5094744;27;45351;-60
2022/12/15 06:23:23;;;;;;;;;71.00;56.33;;;;;0.05;64.52;100042.09;5079476;28;45445;-63
2022/12/15 06:25:48;;;;;;;;;70.33;55.00;;;;;0.08;64.31;100042.03;5079395;28;45382;-61
2022/12/15 06:28:13;;;;;;;;;70.67;51.67;;;;;-0.01;64.38;100030.88;5080188;27;45395;-60
2022/12/15 06:30:39;;;;;;;;;71.67;53.33;;;;;-0.13;64.53;100012.88;5096172;27;45496;-60
2022/12/15 06:33:04;;;;;;;;;72.00;52.00;;;;;-0.04;64.56;100054.47;5099861;27;46262;-60
2022/12/15 06:35:30;;;;;;;;;75.33;58.00;;;;;-0.08;64.57;100049.34;5096396;27;45393;-62
2022/12/15 06:37:55;;;;;;;;;59.33;52.00;;;;;-0.06;64.57;100050.16;5097901;27;45290;-60
2022/12/15 06:40:21;;;;;;;;;68.00;52.00;;;;;-0.01;64.70;100046.53;5107243;27;45405;-60
2022/12/15 06:42:46;;;;;;;;;71.67;54.67;;;;;-0.01;64.62;100043.94;5081252;27;45321;-61
2022/12/15 06:45:11;;;;;;;;;69.33;53.33;;;;;0.01;64.54;100053.53;5088344;27;45362;-60
2022/12/15 06:47:37;;;;;;;;;66.67;52.67;;;;;-0.10;64.15;100049.38;5091905;27;45393;-63
2022/12/15 06:50:02;;;;;;;;;53.67;46.67;;;;;-0.22;65.03;100062.72;5086589;27;45547;-60
2022/12/15 06:52:27;;;;;;;;;67.00;52.00;;;;;-0.31;65.28;100063.75;5096675;27;45993;-62
2022/12/15 06:54:53;;;;;;;;;57.33;48.67;;;;;-0.30;65.30;100062.84;5098495;27;45263;-61
2022/12/15 06:57:18;;;;;;;;;69.00;51.00;;;;;-0.31;65.20;100070.72;5098898;27;45276;-67
2022/12/15 06:59:44;;;;;;;;;75.67;58.33;;;;;-0.34;65.54;100070.78;5097208;27;47036;-68
2022/12/15 07:02:15;;;;;;;;;67.67;50.67;;;;;-0.40;65.50;100066.53;5076065;28;48204;-63
2022/12/15 07:04:41;;;;;;;;;85.00;67.33;;;;;-0.40;65.49;100060.44;5098617;27;45319;-67
2022/12/15 07:07:08;;;;;;;;;88.67;66.33;;;;;-0.38;65.47;100061.31;5097083;27;45459;-64
2022/12/15 07:09:34;;;;;;;;;82.00;64.67;;;;;-0.40;65.25;100070.91;5088780;27;45484;-62
2022/12/15 07:11:59;;;;;;;;;71.67;58.00;;;;;-0.43;65.19;100060.50;5062688;27;47044;-59
2022/12/15 07:14:25;;;;;;;;;70.67;58.67;;;;;-0.46;65.06;100044.91;5097477;27;45479;-59
2022/12/15 07:16:50;;;;;;;;;65.00;52.67;;;;;-0.45;64.89;100049.25;5080639;27;45373;-60
2022/12/15 07:19:16;;;;;;;;;70.00;52.00;;;;;-0.47;64.98;100054.50;5072064;27;45466;-59
2022/12/15 07:21:42;;;;;;;;;58.00;48.33;;;;;-0.42;64.92;100063.09;5090531;27;46186;-61
2022/12/15 07:24:09;;;;;;;;;63.33;53.33;;;;;-0.35;64.86;100074.28;5099478;27;45473;-62
2022/12/15 07:26:35;;;;;;;;;60.33;52.00;;;;;-0.50;64.60;100040.66;5092666;27;45503;-61
2022/12/15 07:29:00;;;;;;;;;72.33;54.33;;;;;-0.37;65.08;100082.16;5088819;27;45785;-58
2022/12/15 07:31:26;;;;;;;;;69.67;54.33;;;;;-0.40;65.25;100087.44;5099464;27;45250;-57
2022/12/15 07:33:53;;;;;;;;;75.33;60.67;;;;;-0.32;65.08;100095.13;5095953;27;45243;-59
2022/12/15 07:36:18;;;;;;;;;73.33;57.67;;;;;-0.39;65.28;100089.19;5076501;27;45403;-58
2022/12/15 07:38:44;;;;;;;;;66.33;54.00;;;;;-0.41;65.07;100084.84;5084850;27;45342;-55
2022/12/15 07:41:10;;;;;;;;;69.00;48.00;;;;;-0.37;64.95;100090.00;5089838;27;45431;-59
2022/12/15 07:43:35;;;;;;;;;70.33;57.33;;;;;-0.38;64.96;100092.66;5093775;27;45394;-58
2022/12/15 07:46:01;;;;;;;;;73.67;57.00;;;;;-0.30;64.79;100095.97;5096882;27;45685;-60
2022/12/15 07:48:26;;;;;;;;;66.67;54.00;;;;;-0.31;64.23;100083.78;5084021;27;45670;-58
2022/12/15 07:50:56;;;;;;;;;70.67;55.67;;;;;-0.25;64.09;100099.34;5078265;28;46116;-55
2022/12/15 07:53:22;;;;;;;;;55.33;45.67;;;;;-0.19;64.26;100106.19;5078798;27;45385;-56
2022/12/15 07:55:58;;;;;;;;;45.67;31.33;;;;;-0.25;63.95;100094.13;5082044;27;45620;-57
2022/12/15 07:58:27;;;;;;;;;57.33;51.00;;;;;-0.22;64.17;100096.69;5079332;27;45650;-58
2022/12/15 08:00:59;;;;;;;;;73.00;58.00;;;;;-0.13;63.78;100101.72;5089208;27;46111;-57
2022/12/15 08:03:24;;;;;;;;;63.00;49.00;;;;;-0.03;63.55;100112.84;5078627;28;45563;-58
2022/12/15 08:05:52;;;;;;;;;51.00;47.67;;;;;-0.02;63.79;100117.16;5097269;27;45348;-58
2022/12/15 08:08:18;;;;;;;;;69.67;57.00;;;;;0.02;63.78;100121.47;5064656;27;45351;-58
2022/12/15 08:10:44;;;;;;;;;78.67;58.00;;;;;-0.08;63.90;100126.00;5084798;27;45476;-59
2022/12/15 08:13:09;;;;;;;;;75.67;59.67;;;;;-0.14;63.85;100126.13;5090499;27;45580;-55
2022/12/15 08:15:38;;;;;;;;;66.33;51.33;;;;;-0.07;63.71;100146.03;5090829;27;45378;-57
2022/12/15 08:18:04;;;;;;;;;74.33;56.33;;;;;-0.12;63.80;100139.19;5092221;27;45609;-56
2022/12/15 08:20:30;;;;;;;;;70.00;52.33;;;;;-0.07;63.79;100148.63;5081191;27;45859;-59
2022/12/15 08:22:56;;;;;;;;;72.67;56.33;;;;;-0.04;63.64;100143.34;5087675;27;45577;-55
2022/12/15 08:25:21;;;;;;;;;71.67;54.67;;;;;-0.12;63.36;100116.50;5095219;27;45491;-54
2022/12/15 08:27:49;;;;;;;;;70.33;56.33;;;;;0.08;63.04;100151.84;5091544;27;45417;-54
2022/12/15 08:30:15;;;;;;;;;70.00;54.00;;;;;0.07;62.71;100142.28;5098133;27;45482;-55
2022/12/15 08:32:40;;;;;;;;;73.67;57.33;;;;;-0.01;63.58;100142.41;5097230;27;45420;-53
2022/12/15 08:35:09;;;;;;;;;70.67;49.67;;;;;0.21;62.90;100164.63;5097437;27;45389;-55
2022/12/15 08:37:34;;;;;;;;;64.00;51.00;;;;;0.22;62.75;100165.47;5092855;27;45542;-52
2022/12/15 08:39:59;;;;;;;;;74.33;60.67;;;;;0.18;62.25;100148.16;5090382;27;47421;-53
2022/12/15 08:42:25;;;;;;;;;68.67;57.00;;;;;0.22;62.92;100147.19;5078384;27;45410;-52
2022/12/15 08:44:51;;;;;;;;;66.33;46.00;;;;;0.33;62.46;100150.44;5081337;27;45444;-53
2022/12/15 08:47:16;;;;;;;;;78.33;58.00;;;;;0.32;62.63;100143.47;5083293;27;45298;-50
2022/12/15 08:49:42;;;;;;;;;74.33;54.00;;;;;0.39;62.17;100152.94;5095113;27;46983;-54
2022/12/15 08:52:07;;;;;;;;;67.33;49.00;;;;;0.33;62.30;100137.34;5074670;27;45647;-54
2022/12/15 08:54:33;;;;;;;;;65.00;52.00;;;;;0.43;61.91;100144.13;5088727;27;46851;-55
2022/12/15 08:56:58;;;;;;;;;63.33;51.00;;;;;0.42;62.10;100146.78;5097849;27;45341;-55
2022/12/15 08:59:24;;;;;;;;;71.67;58.00;;;;;0.49;61.92;100154.44;5095228;27;46117;-56
2022/12/15 09:01:50;;;;;;;;;67.00;55.00;;;;;0.38;61.78;100145.94;5094509;27;45488;-52
2022/12/15 09:04:15;;;;;;;;;75.33;60.00;;;;;0.38;62.13;100148.56;5095588;27;45479;-54
2022/12/15 09:06:41;;;;;;;;;50.67;48.33;;;;;0.40;62.05;100152.03;5097593;27;45621;-50
2022/12/15 09:09:10;;;;;;;;;69.67;52.00;;;;;0.39;62.09;100134.63;5093484;27;46290;-56
2022/12/15 09:11:35;;;;;;;;;70.67;53.33;;;;;0.46;61.87;100144.03;5090636;27;45473;-57
2022/12/15 09:14:02;;;;;;;;;62.00;51.67;;;;;0.46;61.99;100138.81;5095929;27;45388;-58
2022/12/15 09:16:27;;;;;;;;;81.67;60.33;;;;;0.47;61.37;100143.16;5087184;27;45523;-57
2022/12/15 09:18:55;;;;;;;;;78.67;57.33;;;;;0.55;62.26;100159.53;5097783;27;46191;-57
2022/12/15 09:21:24;;;;;;;;;62.33;50.33;;;;;0.62;61.79;100159.41;5094914;27;45352;-60
2022/12/15 09:23:54;;;;;;;;;82.67;55.67;;;;;0.63;61.72;100161.97;5074940;27;45552;-58
2022/12/15 09:26:22;;;;;;;;;83.33;57.67;;;;;0.71;61.24;100159.19;5089248;27;45616;-59
2022/12/15 09:28:48;;;;;;;;;69.33;55.33;;;;;0.77;61.38;100164.28;5089360;27;45413;-58
2022/12/15 09:31:17;;;;;;;;;73.00;56.00;;;;;0.78;61.82;100150.28;5085373;27;45352;-59
2022/12/15 09:33:47;;;;;;;;;75.67;56.00;;;;;0.91;60.81;100170.06;5075049;27;45868;-56
2022/12/15 09:36:13;;;;;;;;;75.00;58.00;;;;;0.95;60.84;100161.25;5082927;27;46273;-56
2022/12/15 09:38:40;;;;;;;;;60.67;51.67;;;;;1.00;61.05;100156.75;5078041;27;47866;-58
2022/12/15 09:41:11;;;;;;;;;72.33;58.00;;;;;1.08;60.68;100167.06;5089301;27;45511;-59
2022/12/15 09:43:48;;;;;;;;;62.67;52.00;;;;;1.10;60.20;100158.25;5091791;27;45440;-58
2022/12/15 09:46:34;;;;;;;;;75.00;59.33;;;;;1.21;60.90;100165.00;5095084;27;45607;-60
2022/12/15 09:49:04;;;;;;;;;76.00;57.33;;;;;1.31;59.93;100172.59;5089829;27;45401;-60
2022/12/15 09:51:42;;;;;;;;;71.67;53.00;;;;;1.29;59.69;100176.13;5100358;27;45259;-59
2022/12/15 09:54:10;;;;;;;;;72.67;56.33;;;;;1.38;59.88;100189.88;5082618;27;45188;-58
2022/12/15 09:56:44;;;;;;;;;70.33;56.67;;;;;1.46;59.58;100176.59;5076322;27;45581;-58
2022/12/15 10:00:06;;;;;;;;;70.00;51.67;;;;;1.56;59.03;100175.44;5115266;27;46402;-63
2022/12/15 10:02:59;;;;;;;;;66.00;52.67;;;;;1.57;58.59;100173.69;5026133;27;45516;-58
2022/12/15 10:05:27;;;;;;;;;70.00;55.00;;;;;1.61;58.90;100176.19;5077471;27;45343;-59
2022/12/15 10:07:53;;;;;;;;;71.67;57.33;;;;;1.62;58.94;100171.81;5096914;27;45239;-61
2022/12/15 10:10:39;;;;;;;;;74.33;57.33;;;;;1.65;58.53;100167.34;5088330;27;46711;-66
2022/12/15 10:13:16;;;;;;;;;80.00;58.67;;;;;1.66;59.16;100169.06;5069091;27;45446;-61
2022/12/15 10:15:55;;;;;;;;;75.67;60.33;;;;;1.72;59.39;100168.03;5071052;27;45612;-57
2022/12/15 10:18:23;;;;;;;;;81.67;63.67;;;;;1.76;59.11;100173.16;5091492;27;45251;-59
2022/12/15 10:20:52;;;;;;;;;75.67;55.67;;;;;1.82;58.66;100164.25;5087583;27;45286;-58
2022/12/15 10:23:18;;;;;;;;;73.00;58.00;;;;;1.88;58.74;100158.00;5086228;27;45326;-58
2022/12/15 10:25:48;;;;;;;;;72.75;57.75;;;;;1.89;58.38;100149.22;5082280;27;45307;-62
2022/12/15 10:28:39;;;;;;;;;71.67;51.67;;;;;1.89;58.26;100155.31;5095075;27;45357;-58
2022/12/15 10:31:17;;;;;;;;;70.67;56.33;;;;;1.99;58.67;100166.44;5075152;27;45487;-65
2022/12/15 10:33:45;;;;;;;;;70.00;52.67;;;;;2.03;57.52;100168.06;5089619;27;45413;-59
2022/12/15 10:36:13;;;;;;;;;72.00;52.75;;;;;2.09;58.12;100167.91;5083086;27;45604;-57
2022/12/15 10:38:46;;;;;;;;;78.00;58.67;;;;;2.16;58.26;100160.69;5079568;27;45560;-60
2022/12/15 10:41:14;;;;;;;;;74.50;53.00;;;;;2.22;57.52;100157.91;5085363;27;46384;-59
2022/12/15 10:43:42;;;;;;;;;73.00;51.67;;;;;2.20;57.63;100144.81;5076378;27;45493;-59
2022/12/15 10:46:07;;;;;;;;;75.33;61.67;;;;;2.27;57.98;100132.41;5082912;27;45374;-58
2022/12/15 10:48:35;;;;;;;;;72.33;55.67;;;;;2.25;57.08;100134.22;5087137;27;45466;-59
2022/12/15 10:51:12;;;;;;;;;78.33;58.00;;;;;2.24;57.18;100125.47;5079681;27;45428;-59
2022/12/15 10:53:42;;;;;;;;;67.33;56.33;;;;;2.25;57.07;100118.47;5078337;27;45672;-58
2022/12/15 10:56:08;;;;;;;;;84.33;60.33;;;;;2.37;57.20;100123.34;5076196;27;45464;-59
2022/12/15 10:58:49;;;;;;;;;76.33;56.33;;;;;2.41;57.15;100118.88;5087706;27;45509;-59
2022/12/15 11:01:19;;;;;;;;;66.67;47.00;;;;;2.47;56.86;100113.41;5069695;27;45386;-59
2022/12/15 11:03:45;;;;;;;;;68.67;56.67;;;;;2.46;57.42;100104.69;5095998;27;45338;-58
2022/12/15 11:06:18;;;;;;;;;83.67;61.67;;;;;2.32;56.62;100101.63;5089747;27;45416;-58
2022/12/15 11:08:46;;;;;;;;;84.00;59.33;;;;;2.26;57.16;100102.69;5092848;27;45600;-59
2022/12/15 11:14:25;;;;;;;;;78.67;60.00;;;;;2.41;57.46;100084.75;5082189;27;45279;-62
2022/12/15 11:16:57;;;;;;;;;50.33;43.67;;;;;2.26;57.66;100080.81;5084030;27;45486;-66
2022/12/15 11:19:49;;;;;;;;;67.67;52.67;;;;;2.21;58.13;100078.31;5100776;27;45684;-63
2022/12/15 11:22:29;;;;;;;;;85.67;64.67;;;;;2.11;58.13;100065.56;5097830;27;45356;-61
2022/12/15 11:25:17;;;;;;;;;84.00;65.00;;;;;2.21;58.00;100057.34;5095037;27;45529;-64
2022/12/15 11:27:44;;;;;;;;;75.67;57.33;;;;;2.23;57.67;100070.44;5077029;28;45505;-68
2022/12/15 11:30:16;;;;;;;;;75.00;54.00;;;;;2.15;58.03;100065.41;5086379;27;45570;-59
2022/12/15 11:32:45;;;;;;;;;117.33;97.00;;;;;2.11;58.40;100034.94;5098905;27;46698;-60
2022/12/15 11:35:19;;;;;;;;;78.00;60.00;;;;;2.17;58.14;100047.84;5092075;27;45215;-59
2022/12/15 11:37:51;;;;;;;;;67.50;54.00;;;;;2.16;58.54;100038.25;5090269;27;46799;-58
2022/12/15 11:40:32;;;;;;;;;61.75;52.00;;;;;2.06;58.28;100034.19;5098315;27;45432;-59
2022/12/15 11:43:04;;;;;;;;;69.75;56.50;;;;;2.07;57.76;100021.03;5098468;27;46277;-61
2022/12/15 11:45:48;;;;;;;;;74.00;57.00;;;;;2.26;58.63;100039.72;5075870;27;45429;-61
2022/12/15 11:48:17;;;;;;;;;74.00;56.75;;;;;2.25;57.61;100026.63;5087126;27;45852;-59
2022/12/15 11:50:51;;;;;;;;;67.00;53.25;;;;;2.24;57.77;100020.53;5084626;27;45541;-64
2022/12/15 11:53:35;;;;;;;;;66.75;53.75;;;;;2.33;57.33;100024.63;5097429;27;45418;-60
2022/12/15 11:56:07;;;;;;;;;63.00;54.00;;;;;2.38;56.51;100008.75;5098366;27;45439;-60
2022/12/15 11:58:44;;;;;;;;;71.75;54.75;;;;;2.42;56.54;100012.97;5075941;27;45491;-59
2022/12/15 12:01:26;;;;;;;;;53.25;40.50;;;;;2.52;56.21;100002.16;5095040;27;45373;-60
2022/12/15 12:04:21;;;;;;;;;65.25;53.00;;;;;2.69;55.84;100005.97;5096695;27;46097;-60
2022/12/15 12:07:10;;;;;;;;;56.25;46.25;;;;;2.84;55.07;99997.56;5079790;27;45395;-59
2022/12/15 12:09:55;;;;;;;;;49.25;41.00;;;;;2.78;54.10;99972.41;5091674;27;45215;-60
2022/12/15 12:12:38;;;;;;;;;39.25;36.50;;;;;2.82;53.86;99966.13;5087614;27;45619;-59
2022/12/15 12:15:10;;;;;;;;;73.00;52.75;;;;;3.03;52.79;99979.44;5079487;27;45505;-59
2022/12/15 12:17:42;;;;;;;;;59.75;47.75;;;;;3.07;52.91;99981.03;5093816;27;46764;-62
2022/12/15 12:20:39;;;;;;;;;60.50;50.75;;;;;3.16;53.16;99985.97;5097577;27;45402;-59
2022/12/15 12:23:14;;;;;;;;;65.50;52.00;;;;;3.22;52.64;99988.38;5096082;27;45464;-58
2022/12/15 12:25:50;;;;;;;;;60.50;44.25;;;;;3.16;51.46;99986.81;5098562;27;46576;-60
2022/12/15 12:28:24;;;;;;;;;64.50;47.75;;;;;3.10;52.33;99976.53;5095178;27;45363;-59
2022/12/15 12:30:50;;;;;;;;;53.25;47.25;;;;;3.12;51.70;99971.22;5093927;27;45395;-60
2022/12/15 12:33:32;;;;;;;;;54.75;45.25;;;;;3.17;52.26;99953.53;5093990;27;45544;-60
2022/12/15 12:36:17;;;;;;;;;62.75;46.25;;;;;3.30;51.68;99952.16;5078714;27;45265;-60
2022/12/15 12:38:49;;;;;;;;;61.25;51.00;;;;;3.44;51.27;99960.41;5083657;27;45256;-60
2022/12/15 12:41:45;;;;;;;;;66.50;51.00;;;;;3.46;52.05;99950.69;5098020;27;45405;-61
2022/12/15 12:44:33;;;;;;;;;43.75;41.25;;;;;3.44;51.45;99949.88;5080771;27;45390;-60
2022/12/15 12:47:11;;;;;;;;;50.00;43.00;;;;;3.39;51.32;99954.47;5097989;27;45318;-60
2022/12/15 12:49:44;;;;;;;;;57.75;48.00;;;;;3.38;51.48;99946.63;5096493;27;45451;-59
2022/12/15 12:52:25;;;;;;;;;74.75;55.00;;;;;3.36;51.49;99957.19;5087353;27;45362;-60
2022/12/15 12:55:12;;;;;;;;;75.25;57.75;;;;;3.38;52.21;99950.09;5097357;27;45251;-63
2022/12/15 12:57:41;;;;;;;;;70.75;52.50;;;;;3.39;51.75;99940.47;5076682;28;46222;-61
2022/12/15 13:00:06;;;;;;;;;68.25;49.75;;;;;3.45;51.65;99956.00;5076603;27;45398;-60
2022/12/15 13:02:36;;;;;;;;;70.50;54.25;;;;;3.50;52.10;99956.69;5097000;27;45267;-60
2022/12/15 13:05:21;;;;;;;;;69.75;56.00;;;;;3.50;52.29;99951.41;5095302;27;45330;-60
2022/12/15 13:08:17;;;;;;;;;54.00;42.50;;;;;3.45;52.02;99950.75;5097361;27;46305;-65
2022/12/15 13:10:45;;;;;;;;;63.75;52.25;;;;;3.45;52.18;99948.97;5046642;28;45358;-59
2022/12/15 13:13:26;;;;;;;;;67.25;54.75;;;;;3.33;52.50;99946.78;5058795;28;45358;-60
2022/12/15 13:16:37;;;;;;;;;56.00;46.50;;;;;3.33;52.89;99952.06;5058922;28;45257;-59
2022/12/15 13:19:07;;;;;;;;;63.25;50.00;;;;;3.47;52.63;99948.91;5074909;28;45446;-59
2022/12/15 13:21:44;;;;;;;;;60.25;49.50;;;;;3.45;52.46;99946.34;5076833;28;45375;-58
2022/12/15 13:24:18;;;;;;;;;57.75;41.75;;;;;3.46;52.29;99948.06;5076996;28;45303;-59
2022/12/15 13:26:44;;;;;;;;;63.00;47.75;;;;;3.28;52.82;99932.13;5076984;28;45573;-59
2022/12/15 13:29:14;;;;;;;;;52.50;48.50;;;;;3.41;53.03;99955.28;5076321;28;46113;-58
2022/12/15 13:31:47;;;;;;;;;58.50;49.75;;;;;3.41;53.29;99943.91;5057417;28;46471;-60
2022/12/15 13:34:17;;;;;;;;;66.25;53.75;;;;;3.34;52.44;99947.66;5076516;28;45314;-60
2022/12/15 13:36:45;;;;;;;;;64.50;48.00;;;;;3.23;52.20;99942.78;5076842;28;45423;-59
2022/12/15 13:39:13;;;;;;;;;52.50;47.25;;;;;3.23;52.33;99955.91;5076849;28;45492;-60
2022/12/15 13:41:45;;;;;;;;;59.25;48.25;;;;;3.17;52.12;99941.25;5076515;28;45457;-58
2022/12/15 13:44:19;;;;;;;;;53.00;35.75;;;;;3.24;52.51;99947.13;5077166;28;45446;-59
2022/12/15 13:46:46;;;;;;;;;55.50;47.00;;;;;3.32;51.64;99942.47;5076668;28;45268;-59
2022/12/15 13:49:32;;;;;;;;;67.25;43.00;;;;;3.36;52.88;99938.78;5077185;28;45409;-60
2022/12/15 13:52:16;;;;;;;;;51.25;41.50;;;;;3.33;50.98;99946.78;5077047;28;45433;-58
2022/12/15 13:54:53;;;;;;;;;56.00;47.75;;;;;3.24;51.41;99929.59;5059053;28;45495;-58
2022/12/15 13:57:19;;;;;;;;;61.00;45.25;;;;;3.27;51.71;99935.66;5076912;28;45429;-60
2022/12/15 13:59:46;;;;;;;;;44.50;40.75;;;;;3.22;51.72;99933.19;5076359;28;45413;-59